KGLR/GLR METAR and TAF weather

Enter ICAO airport designator
Station Type Date Time Source
KGLR METAR 2022/11/26 07:53 UTC NOAA

KGLR 260753Z AUTO 23012G21KT 10SM CLR 05/M02 A2994 RMK AO2 SLP148 T00501022


Station Type Date Time Source
KGLR Decoded METAR 2022/11/26 07:53 UTC NOAA

GAYLORD REGIONAL AIRPORT, MI, United States (KGLR) 45-01N 84-41W 407M
Nov 26, 2022 - 02:53 AM EST / 2022.11.26 0753 UTC
Wind: from the SW (230 degrees) at 14 MPH (12 KT) gusting to 24 MPH (21 KT):0
Visibility: 10 mile(s):0
Sky conditions: clear
Temperature: 41.0 F (5.0 C)
Dew Point: 28.0 F (-2.2 C)
Relative Humidity: 59%
Pressure (altimeter): 29.94 in. Hg (1013 hPa)
ob: KGLR 260753Z AUTO 23012G21KT 10SM CLR 05/M02 A2994 RMK AO2 SLP148 T00501022
cycle: 8

Station Type Date Time Source
KGLR TAF UTC NOAA

Error!

Example: see airport list